Terminal Aerodrome Forecast
Issued by NWS Shreveport, LA

Home | Current Version | Previous Version | Text Only | Print | Product List | Glossary On
Versions: 1 2 3 4 5 6 7 8 9 10 11 12 13 14 15 16 17 18 19 20 21
000
FTUS44 KSHV 240540
TAFSHV
TAF
KSHV 240540Z 2406/2506 15008KT P6SM FEW025 SCT100 BKN250
     FM240900 16009KT P6SM OVC015
     FM241700 16012KT P6SM VCTS BKN025CB
     FM241900 16013G20KT 5SM -TSRA BR OVC025CB
     FM250200 15012KT P6SM OVC025=

USA.gov is the U.S. government's official web portal to all federal, state and local government web resources and services.